CTN850 LDZA-LSZH
Flight info
| Callsign | CTN850 |
|---|---|
| Flight time | 1h 3m |
| Altitude | 38000 |
| Route | PODET DCT ERKIR DCT KPT L856 NEGRA |
| Aircraft | A319/M-SDE3FGHIRWY/LB1 |
Departure
| Time | 2026-05-05 00:29 |
|---|---|
| Airport | Zagreb Franjo Tuđman International Airport (LDZA) |
Arrival
| Time | 2026-05-05 01:32 |
|---|---|
| Airport | Zürich Airport (LSZH) |
| Time | Latitude | Longitude | Altitude | Speed | Heading |
|---|---|---|---|---|---|
| 2026-05-05 00:17 | 45.74177 | 16.07840 | 359 ft | 0 kts | 136° |
| 2026-05-05 00:22 | 45.74189 | 16.07824 | 366 ft | 4 kts | 136° |
| 2026-05-05 00:23 | 45.74208 | 16.07797 | 360 ft | 4 kts | 136° |
| 2026-05-05 00:23 | 45.74224 | 16.07776 | 361 ft | 2 kts | 137° |
| 2026-05-05 00:23 | 45.74239 | 16.07750 | 361 ft | 4 kts | 92° |
| 2026-05-05 00:23 | 45.74230 | 16.07726 | 364 ft | 4 kts | 55° |
| 2026-05-05 00:24 | 45.74228 | 16.07722 | 363 ft | 4 kts | 64° |
| 2026-05-05 00:24 | 45.74229 | 16.07723 | 363 ft | 0 kts | 46° |
| 2026-05-05 00:25 | 45.74230 | 16.07725 | 364 ft | 1 kts | 46° |
| 2026-05-05 00:26 | 45.74248 | 16.07752 | 364 ft | 6 kts | 46° |
| 2026-05-05 00:26 | 45.74288 | 16.07812 | 359 ft | 11 kts | 46° |
| 2026-05-05 00:26 | 45.74342 | 16.07893 | 359 ft | 11 kts | 41° |
| 2026-05-05 00:26 | 45.74410 | 16.07874 | 359 ft | 11 kts | 316° |
| 2026-05-05 00:27 | 45.74469 | 16.07793 | 359 ft | 12 kts | 316° |
| 2026-05-05 00:27 | 45.74533 | 16.07706 | 365 ft | 13 kts | 316° |
| 2026-05-05 00:27 | 45.74602 | 16.07614 | 359 ft | 14 kts | 317° |
| 2026-05-05 00:27 | 45.74670 | 16.07524 | 357 ft | 11 kts | 317° |
| 2026-05-05 00:28 | 45.74685 | 16.07463 | 358 ft | 6 kts | 230° |
| 2026-05-05 00:28 | 45.74649 | 16.07418 | 358 ft | 7 kts | 226° |
| 2026-05-05 00:28 | 45.74583 | 16.07319 | 358 ft | 36 kts | 226° |
| 2026-05-05 00:28 | 45.74213 | 16.06758 | 365 ft | 115 kts | 227° |
| 2026-05-05 00:29 | 45.73532 | 16.05719 | 586 ft | 151 kts | 227° |
| 2026-05-05 00:29 | 45.72844 | 16.04616 | 1350 ft | 149 kts | 229° |
| 2026-05-05 00:29 | 45.72179 | 16.03530 | 2082 ft | 146 kts | 230° |
| 2026-05-05 00:29 | 45.71505 | 16.02431 | 2810 ft | 144 kts | 232° |
| 2026-05-05 00:30 | 45.70854 | 16.01370 | 3496 ft | 143 kts | 232° |
| 2026-05-05 00:30 | 45.70163 | 16.00244 | 3939 ft | 161 kts | 232° |
| 2026-05-05 00:30 | 45.69490 | 15.98823 | 4254 ft | 183 kts | 255° |
| 2026-05-05 00:30 | 45.69678 | 15.96961 | 4567 ft | 213 kts | 299° |
| 2026-05-05 00:31 | 45.70914 | 15.95566 | 5009 ft | 249 kts | 338° |
| 2026-05-05 00:31 | 45.72717 | 15.95206 | 5614 ft | 274 kts | 357° |
| 2026-05-05 00:31 | 45.74656 | 15.95366 | 6135 ft | 285 kts | 4° |
| 2026-05-05 00:31 | 45.76700 | 15.95718 | 6622 ft | 309 kts | 6° |
| 2026-05-05 00:32 | 45.78874 | 15.96104 | 7376 ft | 320 kts | 5° |
| 2026-05-05 00:32 | 45.81109 | 15.96445 | 8278 ft | 326 kts | 4° |
| 2026-05-05 00:32 | 45.83391 | 15.96721 | 9208 ft | 331 kts | 2° |
| 2026-05-05 00:32 | 45.85711 | 15.96944 | 10126 ft | 337 kts | 2° |
| 2026-05-05 00:33 | 45.88069 | 15.97135 | 10987 ft | 342 kts | 1° |
| 2026-05-05 00:33 | 45.90461 | 15.97311 | 11860 ft | 346 kts | 2° |
| 2026-05-05 00:33 | 45.92877 | 15.97488 | 12735 ft | 351 kts | 2° |
| 2026-05-05 00:33 | 45.95331 | 15.97457 | 13544 ft | 355 kts | 351° |
| 2026-05-05 00:34 | 45.97710 | 15.96475 | 14299 ft | 358 kts | 333° |
| 2026-05-05 00:34 | 45.99792 | 15.94533 | 15033 ft | 358 kts | 315° |
| 2026-05-05 00:34 | 46.01439 | 15.91839 | 15770 ft | 360 kts | 305° |
| 2026-05-05 00:34 | 46.02979 | 15.88984 | 16509 ft | 364 kts | 305° |
| 2026-05-05 00:35 | 46.04540 | 15.86090 | 17241 ft | 368 kts | 305° |
| 2026-05-05 00:35 | 46.06123 | 15.83162 | 17957 ft | 373 kts | 305° |
| 2026-05-05 00:35 | 46.07722 | 15.80202 | 18610 ft | 377 kts | 305° |
| 2026-05-05 00:35 | 46.09332 | 15.77212 | 19258 ft | 379 kts | 305° |
| 2026-05-05 00:36 | 46.10953 | 15.74200 | 19933 ft | 381 kts | 305° |
| 2026-05-05 00:36 | 46.12578 | 15.71180 | 20609 ft | 382 kts | 305° |
| 2026-05-05 00:36 | 46.14212 | 15.68137 | 21266 ft | 384 kts | 305° |
| 2026-05-05 00:36 | 46.15852 | 15.65080 | 21942 ft | 386 kts | 305° |
| 2026-05-05 00:37 | 46.17432 | 15.61951 | 22576 ft | 387 kts | 300° |
| 2026-05-05 00:37 | 46.18794 | 15.58596 | 23226 ft | 388 kts | 298° |
| 2026-05-05 00:37 | 46.20152 | 15.55214 | 23813 ft | 390 kts | 298° |
| 2026-05-05 00:37 | 46.21517 | 15.51816 | 24313 ft | 393 kts | 298° |
| 2026-05-05 00:38 | 46.22887 | 15.48397 | 24799 ft | 395 kts | 298° |
| 2026-05-05 00:38 | 46.24272 | 15.44946 | 25267 ft | 398 kts | 298° |
| 2026-05-05 00:38 | 46.25667 | 15.41469 | 25716 ft | 401 kts | 298° |
| 2026-05-05 00:38 | 46.27070 | 15.37968 | 26163 ft | 404 kts | 298° |
| 2026-05-05 00:39 | 46.28481 | 15.34435 | 26622 ft | 407 kts | 298° |
| 2026-05-05 00:39 | 46.29900 | 15.30876 | 27078 ft | 410 kts | 298° |
| 2026-05-05 00:39 | 46.31325 | 15.27298 | 27519 ft | 412 kts | 298° |
| 2026-05-05 00:39 | 46.32762 | 15.23691 | 27962 ft | 415 kts | 298° |
| 2026-05-05 00:40 | 46.34191 | 15.20110 | 28408 ft | 418 kts | 298° |
| 2026-05-05 00:40 | 46.35665 | 15.16407 | 28849 ft | 420 kts | 298° |
| 2026-05-05 00:40 | 46.37121 | 15.12731 | 29294 ft | 423 kts | 297° |
| 2026-05-05 00:40 | 46.38568 | 15.09064 | 29703 ft | 426 kts | 297° |
| 2026-05-05 00:41 | 46.40039 | 15.05332 | 30139 ft | 428 kts | 297° |
| 2026-05-05 00:41 | 46.41522 | 15.01576 | 30507 ft | 430 kts | 297° |
| 2026-05-05 00:41 | 46.43009 | 14.97802 | 30855 ft | 432 kts | 297° |
| 2026-05-05 00:41 | 46.44521 | 14.93958 | 31214 ft | 435 kts | 297° |
| 2026-05-05 00:42 | 46.45999 | 14.90192 | 31564 ft | 436 kts | 297° |
| 2026-05-05 00:42 | 46.47500 | 14.86359 | 31977 ft | 436 kts | 297° |
| 2026-05-05 00:42 | 46.48996 | 14.82544 | 32475 ft | 434 kts | 297° |
| 2026-05-05 00:42 | 46.50491 | 14.78739 | 32972 ft | 432 kts | 298° |
| 2026-05-05 00:43 | 46.51976 | 14.74962 | 33452 ft | 431 kts | 298° |
| 2026-05-05 00:43 | 46.53455 | 14.71193 | 33932 ft | 429 kts | 298° |
| 2026-05-05 00:43 | 46.54926 | 14.67425 | 34367 ft | 428 kts | 297° |
| 2026-05-05 00:43 | 46.56390 | 14.63663 | 34749 ft | 427 kts | 297° |
| 2026-05-05 00:44 | 46.57847 | 14.59914 | 35108 ft | 426 kts | 297° |
| 2026-05-05 00:44 | 46.59303 | 14.56160 | 35474 ft | 426 kts | 297° |
| 2026-05-05 00:44 | 46.60753 | 14.52409 | 35831 ft | 425 kts | 297° |
| 2026-05-05 00:44 | 46.62195 | 14.48670 | 36168 ft | 424 kts | 297° |
| 2026-05-05 00:45 | 46.63638 | 14.44931 | 36516 ft | 423 kts | 297° |
| 2026-05-05 00:45 | 46.65078 | 14.41193 | 36849 ft | 423 kts | 297° |
| 2026-05-05 00:45 | 46.66512 | 14.37470 | 37169 ft | 422 kts | 297° |
| 2026-05-05 00:45 | 46.67949 | 14.33747 | 37489 ft | 421 kts | 297° |
| 2026-05-05 00:46 | 46.69382 | 14.30027 | 37816 ft | 421 kts | 297° |
| 2026-05-05 00:46 | 46.70816 | 14.26300 | 38002 ft | 422 kts | 297° |
| 2026-05-05 00:46 | 46.72258 | 14.22552 | 38034 ft | 427 kts | 297° |
| 2026-05-05 00:47 | 46.75164 | 14.14962 | 38032 ft | 430 kts | 297° |
| 2026-05-05 00:47 | 46.78071 | 14.07331 | 38039 ft | 430 kts | 297° |
| 2026-05-05 00:48 | 46.80972 | 13.99704 | 38049 ft | 430 kts | 297° |
| 2026-05-05 00:48 | 46.83872 | 13.92057 | 38055 ft | 430 kts | 296° |
| 2026-05-05 00:49 | 46.86763 | 13.84423 | 38054 ft | 430 kts | 296° |
| 2026-05-05 00:49 | 46.89645 | 13.76772 | 38057 ft | 430 kts | 296° |
| 2026-05-05 00:50 | 46.92534 | 13.69113 | 38057 ft | 430 kts | 296° |
| 2026-05-05 00:50 | 46.95415 | 13.61446 | 38067 ft | 430 kts | 296° |
| 2026-05-05 00:51 | 46.98280 | 13.53768 | 38056 ft | 430 kts | 296° |
| 2026-05-05 00:51 | 47.01150 | 13.46064 | 38049 ft | 431 kts | 296° |
| 2026-05-05 00:52 | 47.04016 | 13.38360 | 38045 ft | 431 kts | 296° |
| 2026-05-05 00:52 | 47.06884 | 13.30637 | 38043 ft | 431 kts | 296° |
| 2026-05-05 00:53 | 47.09740 | 13.22910 | 38048 ft | 431 kts | 296° |
| 2026-05-05 00:53 | 47.12591 | 13.15177 | 38044 ft | 431 kts | 295° |
| 2026-05-05 00:54 | 47.15444 | 13.07438 | 38024 ft | 431 kts | 295° |
| 2026-05-05 00:54 | 47.18288 | 12.99683 | 38026 ft | 431 kts | 295° |
| 2026-05-05 00:55 | 47.21121 | 12.91917 | 38022 ft | 431 kts | 295° |
| 2026-05-05 00:55 | 47.23953 | 12.84145 | 38031 ft | 431 kts | 295° |
| 2026-05-05 00:56 | 47.26785 | 12.76377 | 38008 ft | 430 kts | 295° |
| 2026-05-05 00:56 | 47.29603 | 12.68596 | 38007 ft | 430 kts | 295° |
| 2026-05-05 00:57 | 47.32409 | 12.60813 | 38013 ft | 430 kts | 295° |
| 2026-05-05 00:57 | 47.35210 | 12.53025 | 38011 ft | 430 kts | 295° |
| 2026-05-05 00:58 | 47.38004 | 12.45244 | 37990 ft | 429 kts | 295° |
| 2026-05-05 00:58 | 47.40793 | 12.37456 | 37989 ft | 429 kts | 294° |
| 2026-05-05 00:59 | 47.43563 | 12.29720 | 37988 ft | 429 kts | 295° |
| 2026-05-05 00:59 | 47.46342 | 12.21932 | 37984 ft | 429 kts | 294° |
| 2026-05-05 01:00 | 47.49109 | 12.14126 | 37982 ft | 429 kts | 294° |
| 2026-05-05 01:00 | 47.51869 | 12.06313 | 37970 ft | 428 kts | 294° |
| 2026-05-05 01:01 | 47.53863 | 11.99593 | 37969 ft | 424 kts | 283° |
| 2026-05-05 01:01 | 47.55066 | 11.91148 | 37966 ft | 422 kts | 278° |
| 2026-05-05 01:02 | 47.56190 | 11.82622 | 37964 ft | 422 kts | 278° |
| 2026-05-05 01:02 | 47.57316 | 11.74100 | 37970 ft | 422 kts | 278° |
| 2026-05-05 01:03 | 47.58435 | 11.65567 | 37971 ft | 422 kts | 278° |
| 2026-05-05 01:03 | 47.59537 | 11.57029 | 37966 ft | 422 kts | 278° |
| 2026-05-05 01:04 | 47.60631 | 11.48483 | 37959 ft | 422 kts | 278° |
| 2026-05-05 01:04 | 47.62265 | 11.35665 | 37965 ft | 422 kts | 278° |
| 2026-05-05 01:05 | 47.63346 | 11.27120 | 37959 ft | 422 kts | 278° |
| 2026-05-05 01:05 | 47.64430 | 11.18563 | 37959 ft | 422 kts | 278° |
| 2026-05-05 01:06 | 47.65502 | 11.10003 | 37954 ft | 422 kts | 277° |
| 2026-05-05 01:06 | 47.66561 | 11.01446 | 37955 ft | 422 kts | 277° |
| 2026-05-05 01:07 | 47.67614 | 10.92886 | 37973 ft | 422 kts | 277° |
| 2026-05-05 01:07 | 47.68661 | 10.84319 | 37973 ft | 421 kts | 277° |
| 2026-05-05 01:08 | 47.69702 | 10.75767 | 37976 ft | 421 kts | 277° |
| 2026-05-05 01:08 | 47.70733 | 10.67283 | 37974 ft | 421 kts | 277° |
| 2026-05-05 01:09 | 47.71764 | 10.58735 | 37891 ft | 420 kts | 277° |
| 2026-05-05 01:09 | 47.72272 | 10.54503 | 37612 ft | 413 kts | 277° |
| 2026-05-05 01:09 | 47.72773 | 10.50318 | 37328 ft | 411 kts | 277° |
| 2026-05-05 01:10 | 47.73269 | 10.46137 | 37070 ft | 410 kts | 276° |
| 2026-05-05 01:10 | 47.73762 | 10.41962 | 36802 ft | 410 kts | 276° |
| 2026-05-05 01:10 | 47.74252 | 10.37788 | 36538 ft | 411 kts | 276° |
| 2026-05-05 01:10 | 47.74535 | 10.33590 | 36276 ft | 407 kts | 268° |
| 2026-05-05 01:11 | 47.74459 | 10.29381 | 36017 ft | 407 kts | 265° |
| 2026-05-05 01:11 | 47.74357 | 10.25181 | 35762 ft | 407 kts | 265° |
| 2026-05-05 01:11 | 47.74260 | 10.20990 | 35505 ft | 407 kts | 265° |
| 2026-05-05 01:11 | 47.74167 | 10.16797 | 35030 ft | 404 kts | 266° |
| 2026-05-05 01:12 | 47.74074 | 10.12636 | 34503 ft | 401 kts | 265° |
| 2026-05-05 01:12 | 47.73980 | 10.08505 | 33960 ft | 400 kts | 265° |
| 2026-05-05 01:12 | 47.73881 | 10.04385 | 33366 ft | 397 kts | 265° |
| 2026-05-05 01:12 | 47.73782 | 10.00304 | 32814 ft | 395 kts | 265° |
| 2026-05-05 01:13 | 47.73682 | 9.96270 | 32256 ft | 392 kts | 265° |
| 2026-05-05 01:13 | 47.73580 | 9.92222 | 31683 ft | 391 kts | 265° |
| 2026-05-05 01:13 | 47.73481 | 9.88193 | 31108 ft | 391 kts | 265° |
| 2026-05-05 01:13 | 47.73380 | 9.84161 | 30538 ft | 391 kts | 265° |
| 2026-05-05 01:14 | 47.73277 | 9.80142 | 29972 ft | 389 kts | 265° |
| 2026-05-05 01:14 | 47.73173 | 9.76134 | 29361 ft | 387 kts | 265° |
| 2026-05-05 01:14 | 47.73066 | 9.72161 | 28819 ft | 383 kts | 265° |
| 2026-05-05 01:14 | 47.72959 | 9.68228 | 28282 ft | 380 kts | 264° |
| 2026-05-05 01:15 | 47.72849 | 9.64307 | 27738 ft | 378 kts | 264° |
| 2026-05-05 01:15 | 47.72739 | 9.60426 | 27207 ft | 375 kts | 264° |
| 2026-05-05 01:15 | 47.72629 | 9.56567 | 26677 ft | 373 kts | 264° |
| 2026-05-05 01:15 | 47.72518 | 9.52728 | 26152 ft | 372 kts | 264° |
| 2026-05-05 01:16 | 47.72399 | 9.48896 | 25625 ft | 370 kts | 263° |
| 2026-05-05 01:16 | 47.71976 | 9.45156 | 25116 ft | 366 kts | 252° |
| 2026-05-05 01:16 | 47.71105 | 9.41630 | 24614 ft | 362 kts | 242° |
| 2026-05-05 01:16 | 47.69834 | 9.38428 | 24139 ft | 359 kts | 233° |
| 2026-05-05 01:17 | 47.68276 | 9.35544 | 23658 ft | 357 kts | 230° |
| 2026-05-05 01:17 | 47.66707 | 9.32702 | 23155 ft | 355 kts | 230° |
| 2026-05-05 01:17 | 47.65160 | 9.29885 | 22712 ft | 350 kts | 230° |
| 2026-05-05 01:17 | 47.63633 | 9.27098 | 22269 ft | 346 kts | 230° |
| 2026-05-05 01:18 | 47.62124 | 9.24350 | 21860 ft | 342 kts | 230° |
| 2026-05-05 01:18 | 47.60670 | 9.21588 | 21418 ft | 339 kts | 234° |
| 2026-05-05 01:18 | 47.59542 | 9.18534 | 20974 ft | 338 kts | 245° |
| 2026-05-05 01:18 | 47.58817 | 9.15228 | 20527 ft | 338 kts | 255° |
| 2026-05-05 01:19 | 47.58399 | 9.11848 | 20069 ft | 337 kts | 257° |
| 2026-05-05 01:19 | 47.57989 | 9.08436 | 19606 ft | 337 kts | 258° |
| 2026-05-05 01:19 | 47.57847 | 9.04968 | 19141 ft | 339 kts | 269° |
| 2026-05-05 01:19 | 47.58162 | 9.01478 | 18666 ft | 342 kts | 281° |
| 2026-05-05 01:20 | 47.58912 | 8.98171 | 18182 ft | 345 kts | 289° |
| 2026-05-05 01:20 | 47.59815 | 8.94876 | 17653 ft | 345 kts | 289° |
| 2026-05-05 01:20 | 47.60715 | 8.91588 | 17169 ft | 344 kts | 289° |
| 2026-05-05 01:20 | 47.61609 | 8.88307 | 16699 ft | 343 kts | 289° |
| 2026-05-05 01:21 | 47.62401 | 8.84988 | 16223 ft | 339 kts | 281° |
| 2026-05-05 01:21 | 47.62721 | 8.81519 | 15783 ft | 340 kts | 269° |
| 2026-05-05 01:21 | 47.62541 | 8.78054 | 15307 ft | 336 kts | 257° |
| 2026-05-05 01:21 | 47.61888 | 8.74763 | 14834 ft | 332 kts | 246° |
| 2026-05-05 01:22 | 47.60990 | 8.71614 | 14379 ft | 331 kts | 245° |
| 2026-05-05 01:22 | 47.60101 | 8.68479 | 13905 ft | 330 kts | 246° |
| 2026-05-05 01:22 | 47.59421 | 8.65240 | 13437 ft | 330 kts | 259° |
| 2026-05-05 01:22 | 47.59403 | 8.61839 | 12939 ft | 332 kts | 276° |
| 2026-05-05 01:23 | 47.60078 | 8.58576 | 12431 ft | 334 kts | 294° |
| 2026-05-05 01:23 | 47.61396 | 8.55734 | 11909 ft | 337 kts | 311° |
| 2026-05-05 01:23 | 47.63110 | 8.53355 | 11376 ft | 337 kts | 316° |
| 2026-05-05 01:23 | 47.64832 | 8.51014 | 10897 ft | 335 kts | 316° |
| 2026-05-05 01:24 | 47.66540 | 8.48680 | 10440 ft | 332 kts | 316° |
| 2026-05-05 01:24 | 47.68208 | 8.46395 | 10287 ft | 320 kts | 316° |
| 2026-05-05 01:24 | 47.69811 | 8.44199 | 10173 ft | 307 kts | 316° |
| 2026-05-05 01:24 | 47.71351 | 8.42084 | 10062 ft | 296 kts | 314° |
| 2026-05-05 01:25 | 47.72824 | 8.40023 | 9789 ft | 290 kts | 310° |
| 2026-05-05 01:25 | 47.73789 | 8.37457 | 9260 ft | 284 kts | 281° |
| 2026-05-05 01:25 | 47.73817 | 8.34580 | 8795 ft | 279 kts | 254° |
| 2026-05-05 01:25 | 47.72959 | 8.32043 | 8337 ft | 276 kts | 229° |
| 2026-05-05 01:26 | 47.71674 | 8.29953 | 7877 ft | 273 kts | 226° |
| 2026-05-05 01:26 | 47.70339 | 8.27997 | 7429 ft | 267 kts | 215° |
| 2026-05-05 01:26 | 47.68623 | 8.27146 | 6996 ft | 262 kts | 179° |
| 2026-05-05 01:26 | 47.66932 | 8.27942 | 6597 ft | 258 kts | 144° |
| 2026-05-05 01:27 | 47.65657 | 8.29783 | 6170 ft | 254 kts | 136° |
| 2026-05-05 01:27 | 47.64352 | 8.31517 | 5746 ft | 249 kts | 139° |
| 2026-05-05 01:27 | 47.63078 | 8.33208 | 5411 ft | 242 kts | 138° |
| 2026-05-05 01:27 | 47.61855 | 8.34884 | 5088 ft | 237 kts | 137° |
| 2026-05-05 01:28 | 47.60661 | 8.36529 | 4782 ft | 232 kts | 137° |
| 2026-05-05 01:28 | 47.59489 | 8.38143 | 4473 ft | 227 kts | 137° |
| 2026-05-05 01:28 | 47.58343 | 8.39717 | 4164 ft | 221 kts | 136° |
| 2026-05-05 01:28 | 47.57238 | 8.41235 | 3874 ft | 213 kts | 136° |
| 2026-05-05 01:29 | 47.56173 | 8.42697 | 3632 ft | 203 kts | 136° |
| 2026-05-05 01:29 | 47.55160 | 8.44086 | 3341 ft | 194 kts | 136° |
| 2026-05-05 01:29 | 47.54189 | 8.45417 | 3095 ft | 186 kts | 136° |
| 2026-05-05 01:29 | 47.53273 | 8.46673 | 2850 ft | 176 kts | 136° |
| 2026-05-05 01:30 | 47.52418 | 8.47845 | 2627 ft | 158 kts | 136° |
| 2026-05-05 01:30 | 47.51656 | 8.48887 | 2407 ft | 143 kts | 136° |
| 2026-05-05 01:30 | 47.50935 | 8.49875 | 2193 ft | 137 kts | 137° |
| 2026-05-05 01:30 | 47.50243 | 8.50820 | 2010 ft | 135 kts | 136° |
| 2026-05-05 01:31 | 47.49558 | 8.51760 | 1819 ft | 133 kts | 136° |
| 2026-05-05 01:31 | 47.48879 | 8.52690 | 1637 ft | 133 kts | 137° |
| 2026-05-05 01:31 | 47.48200 | 8.53618 | 1461 ft | 132 kts | 137° |
| 2026-05-05 01:31 | 47.47566 | 8.54485 | 1394 ft | 114 kts | 137° |
| 2026-05-05 01:32 | 47.47095 | 8.55131 | 1388 ft | 77 kts | 137° |
| 2026-05-05 01:32 | 47.46757 | 8.55591 | 1398 ft | 40 kts | 137° |
| 2026-05-05 01:32 | 47.46618 | 8.55779 | 1398 ft | 23 kts | 140° |
| 2026-05-05 01:32 | 47.46488 | 8.55906 | 1399 ft | 22 kts | 156° |
| 2026-05-05 01:33 | 47.46352 | 8.55964 | 1407 ft | 16 kts | 167° |
| 2026-05-05 01:33 | 47.46259 | 8.55994 | 1408 ft | 11 kts | 167° |
| 2026-05-05 01:33 | 47.46186 | 8.56007 | 1406 ft | 10 kts | 181° |
| 2026-05-05 01:33 | 47.46116 | 8.55994 | 1407 ft | 11 kts | 186° |
| 2026-05-05 01:34 | 47.46033 | 8.55981 | 1407 ft | 14 kts | 186° |
| 2026-05-05 01:34 | 47.45932 | 8.55951 | 1413 ft | 15 kts | 200° |
| 2026-05-05 01:34 | 47.45839 | 8.55900 | 1410 ft | 14 kts | 200° |
| 2026-05-05 01:34 | 47.45744 | 8.55872 | 1409 ft | 15 kts | 185° |
| 2026-05-05 01:35 | 47.45637 | 8.55856 | 1408 ft | 16 kts | 185° |
| 2026-05-05 01:35 | 47.45540 | 8.55840 | 1408 ft | 12 kts | 189° |
| 2026-05-05 01:35 | 47.45469 | 8.55808 | 1407 ft | 9 kts | 180° |
| 2026-05-05 01:35 | 47.45430 | 8.55804 | 1407 ft | 2 kts | 186° |
| 2026-05-05 01:36 | 47.45421 | 8.55803 | 1407 ft | 0 kts | 186° |